Time;durP1;ratioP1;P1;durP2;ratioP2;P2;SDS_P1;SDS_P2;PMS_P1;PMS_P2;Temp;Humidity;BMP_temperature;BMP_pressure;BME280_temperature;BME280_humidity;BME280_pressure;Samples;Min_cycle;Max_cycle;Signal;HPM_P1;HPM_P2
2021/06/19 17:11:05;;;;;;;12.68;10.63;;;23.80;99.90;;;;;;5139727;27;20137;-71
2021/06/19 17:13:34;;;;;;;15.63;12.30;;;23.70;99.90;;;;;;5107759;28;20387;-70
2021/06/19 17:16:00;;;;;;;13.27;11.88;;;23.70;99.90;;;;;;5107208;28;20020;-71
2021/06/19 17:18:26;;;;;;;15.82;12.15;;;23.70;99.90;;;;;;5107246;28;20089;-71
2021/06/19 17:20:52;;;;;;;13.18;11.15;;;23.70;99.90;;;;;;5109495;28;20107;-71
2021/06/19 17:23:18;;;;;;;15.85;12.07;;;23.60;99.90;;;;;;5093682;28;20036;-71
2021/06/19 17:25:44;;;;;;;13.48;11.80;;;23.60;99.90;;;;;;5088597;28;20455;-71
2021/06/19 17:28:09;;;;;;;17.73;14.13;;;23.60;99.90;;;;;;5088576;28;20031;-69
2021/06/19 17:30:35;;;;;;;18.02;13.27;;;23.60;99.90;;;;;;5088154;28;20127;-71
2021/06/19 17:33:00;;;;;;;13.27;11.40;;;23.70;99.90;;;;;;5091928;28;20028;-68
2021/06/19 17:35:26;;;;;;;12.52;10.10;;;23.70;99.90;;;;;;5087346;28;20054;-70
2021/06/19 17:37:52;;;;;;;13.63;9.20;;;23.60;99.90;;;;;;5087920;28;20027;-71
2021/06/19 17:40:18;;;;;;;10.73;8.98;;;23.70;99.90;;;;;;5087106;28;20114;-71
2021/06/19 17:42:44;;;;;;;9.43;8.30;;;23.60;99.90;;;;;;5086540;28;20777;-71
2021/06/19 17:45:10;;;;;;;9.15;8.18;;;23.70;99.90;;;;;;5089775;28;20031;-72
2021/06/19 17:47:35;;;;;;;10.65;7.95;;;23.60;99.90;;;;;;5086679;28;20033;-71
2021/06/19 17:50:02;;;;;;;9.40;7.82;;;23.60;99.90;;;;;;5084342;28;20028;-71
2021/06/19 17:52:27;;;;;;;9.88;7.90;;;23.60;99.90;;;;;;5086792;28;20020;-70
2021/06/19 17:54:53;;;;;;;10.73;8.18;;;23.60;99.90;;;;;;5086815;28;20033;-70
2021/06/19 17:57:23;;;;;;;9.48;7.65;;;23.60;99.90;;;;;;5086751;28;20100;-70
2021/06/19 17:59:49;;;;;;;11.75;7.90;;;23.60;99.90;;;;;;5086522;28;20043;-70
2021/06/19 18:02:15;;;;;;;10.43;8.02;;;23.60;99.90;;;;;;5088575;28;20069;-70
2021/06/19 18:04:40;;;;;;;10.45;6.97;;;23.60;99.90;;;;;;5086492;28;20024;-70
2021/06/19 18:07:07;;;;;;;10.13;6.90;;;23.60;99.90;;;;;;5086657;28;20456;-70
2021/06/19 18:09:36;;;;;;;7.90;6.88;;;23.60;99.90;;;;;;5086262;28;20476;-70
2021/06/19 18:12:03;;;;;;;8.10;7.28;;;23.60;99.90;;;;;;5085359;28;20059;-70
2021/06/19 18:14:30;;;;;;;9.27;6.57;;;23.60;99.90;;;;;;5086989;28;20020;-70
2021/06/19 18:16:55;;;;;;;7.43;6.68;;;23.60;99.90;;;;;;5087256;28;20021;-71
2021/06/19 18:19:21;;;;;;;8.73;6.95;;;23.60;99.90;;;;;;5086708;28;20017;-71
2021/06/19 18:21:47;;;;;;;8.18;7.30;;;23.50;99.90;;;;;;5076308;28;20066;-70
2021/06/19 18:24:13;;;;;;;8.25;6.93;;;23.50;99.90;;;;;;5074851;28;20028;-70
2021/06/19 18:26:39;;;;;;;8.02;7.10;;;23.50;99.90;;;;;;5073908;28;20028;-71
2021/06/19 18:29:04;;;;;;;9.15;7.60;;;23.50;99.90;;;;;;5073028;28;20074;-70
2021/06/19 18:31:33;;;;;;;7.80;7.00;;;23.50;99.90;;;;;;5073519;28;20447;-69
2021/06/19 18:33:59;;;;;;;8.90;7.28;;;23.50;99.90;;;;;;5073013;28;20350;-70
2021/06/19 18:36:25;;;;;;;9.00;7.38;;;23.50;99.90;;;;;;5073127;28;20028;-67
2021/06/19 18:38:50;;;;;;;8.27;7.25;;;23.50;99.90;;;;;;5070664;28;20111;-69
2021/06/19 18:41:16;;;;;;;9.80;7.53;;;23.40;99.90;;;;;;5073148;28;20395;-69
2021/06/19 18:43:42;;;;;;;8.23;7.43;;;23.50;99.90;;;;;;5071610;28;20032;-70
2021/06/19 18:46:08;;;;;;;9.48;7.28;;;23.40;99.90;;;;;;5073096;28;20028;-71
2021/06/19 18:48:34;;;;;;;7.55;6.75;;;23.40;99.90;;;;;;5074498;28;20032;-70
2021/06/19 18:51:00;;;;;;;9.07;7.40;;;23.40;99.90;;;;;;5073299;28;20035;-70
2021/06/19 18:53:25;;;;;;;8.15;7.35;;;23.40;99.90;;;;;;5073090;28;20487;-70
2021/06/19 18:55:51;;;;;;;8.90;7.75;;;23.40;99.90;;;;;;5073786;28;20052;-70
2021/06/19 18:58:18;;;;;;;8.82;6.80;;;23.30;99.90;;;;;;5072687;28;20020;-68
2021/06/19 19:00:44;;;;;;;7.05;6.25;;;23.40;99.90;;;;;;5071427;28;20722;-68
2021/06/19 19:03:13;;;;;;;6.55;5.82;;;23.40;99.90;;;;;;5071667;28;20028;-69
2021/06/19 19:05:38;;;;;;;6.72;5.47;;;23.50;99.90;;;;;;5070014;28;20021;-67
2021/06/19 19:08:04;;;;;;;5.70;5.20;;;23.60;99.90;;;;;;5071768;28;20477;-67
2021/06/19 19:10:30;;;;;;;6.88;4.85;;;23.60;99.90;;;;;;5068762;28;20523;-68
2021/06/19 19:12:56;;;;;;;6.15;4.97;;;23.60;99.90;;;;;;5071457;28;20053;-68
2021/06/19 19:15:23;;;;;;;5.60;4.90;;;23.60;99.90;;;;;;5072824;28;20530;-67
2021/06/19 19:17:50;;;;;;;5.85;4.78;;;23.60;99.90;;;;;;5072382;28;20025;-67
2021/06/19 19:20:16;;;;;;;4.80;4.30;;;23.60;99.90;;;;;;5071681;28;20035;-67
2021/06/19 19:22:41;;;;;;;5.55;4.60;;;23.60;99.90;;;;;;5070907;28;20024;-67
2021/06/19 19:25:07;;;;;;;4.40;4.00;;;23.60;99.90;;;;;;5071749;28;20032;-68
2021/06/19 19:27:34;;;;;;;5.70;4.20;;;23.60;99.90;;;;;;5072230;28;20047;-68
2021/06/19 19:30:00;;;;;;;5.00;4.35;;;23.60;99.90;;;;;;5071389;28;20047;-67
2021/06/19 19:32:26;;;;;;;5.15;4.30;;;23.60;99.90;;;;;;5069587;28;20028;-68
2021/06/19 19:34:52;;;;;;;5.20;4.53;;;23.60;99.90;;;;;;5071586;28;20551;-67
2021/06/19 19:37:18;;;;;;;6.28;4.30;;;23.50;99.90;;;;;;5071536;28;20112;-67
2021/06/19 19:39:45;;;;;;;5.32;4.30;;;23.60;99.90;;;;;;5069290;28;20499;-67
2021/06/19 19:42:13;;;;;;;5.25;4.47;;;23.60;99.90;;;;;;5070950;28;20053;-69
2021/06/19 19:44:40;;;;;;;5.28;4.65;;;23.60;99.90;;;;;;5068477;28;20024;-69
2021/06/19 19:47:07;;;;;;;6.50;5.57;;;23.60;99.90;;;;;;5072806;28;20082;-70
2021/06/19 19:49:32;;;;;;;6.75;6.00;;;23.60;99.90;;;;;;5070482;28;20032;-69
2021/06/19 19:51:59;;;;;;;7.70;5.75;;;23.60;99.90;;;;;;5070926;28;20109;-69
2021/06/19 19:54:27;;;;;;;6.60;5.90;;;23.60;99.90;;;;;;5071534;28;20532;-69
2021/06/19 19:56:54;;;;;;;5.55;5.03;;;23.60;99.90;;;;;;5072674;28;20016;-69
2021/06/19 19:59:19;;;;;;;8.10;5.80;;;23.50;99.90;;;;;;5072772;28;20028;-69
2021/06/19 20:01:50;;;;;;;6.80;4.68;;;23.50;99.90;;;;;;5072640;28;20035;-69
2021/06/19 20:04:16;;;;;;;7.25;5.35;;;23.50;99.90;;;;;;5071751;28;20060;-69
2021/06/19 20:06:42;;;;;;;6.93;5.60;;;23.50;99.90;;;;;;5071731;28;20509;-70
2021/06/19 20:09:07;;;;;;;6.72;5.45;;;23.50;99.90;;;;;;5071967;28;20064;-70
2021/06/19 20:11:33;;;;;;;6.70;5.15;;;23.50;99.90;;;;;;5071133;28;20182;-70
2021/06/19 20:13:59;;;;;;;7.43;5.85;;;23.50;99.90;;;;;;5072152;28;20024;-69
2021/06/19 20:16:24;;;;;;;8.13;6.60;;;23.50;99.90;;;;;;5071256;28;20396;-70
2021/06/19 20:18:51;;;;;;;9.05;6.47;;;23.50;99.90;;;;;;5072288;28;20044;-69
2021/06/19 20:21:18;;;;;;;7.40;6.40;;;23.50;99.90;;;;;;5071918;28;20039;-70
2021/06/19 20:23:43;;;;;;;9.27;6.55;;;23.50;99.90;;;;;;5071766;28;20479;-70
2021/06/19 20:26:09;;;;;;;7.57;5.85;;;23.50;99.90;;;;;;5071851;28;20032;-70
2021/06/19 20:28:34;;;;;;;7.18;6.00;;;23.50;99.90;;;;;;5071846;28;20024;-70
2021/06/19 20:31:01;;;;;;;9.40;6.45;;;23.50;99.90;;;;;;5071759;28;20473;-70
2021/06/19 20:33:27;;;;;;;8.02;6.28;;;23.50;99.90;;;;;;5071611;28;20032;-70
2021/06/19 20:35:58;;;;;;;9.00;7.47;;;23.50;99.90;;;;;;5070782;28;20025;-70
2021/06/19 20:38:27;;;;;;;8.00;7.20;;;23.50;99.90;;;;;;5071615;28;20032;-70
2021/06/19 20:40:53;;;;;;;11.73;9.13;;;23.50;99.90;;;;;;5071350;28;20016;-70
2021/06/19 20:43:19;;;;;;;11.10;8.82;;;23.50;99.90;;;;;;5071872;28;20032;-70
2021/06/19 20:45:45;;;;;;;11.50;9.30;;;23.60;99.90;;;;;;5071255;28;20028;-70
2021/06/19 20:48:13;;;;;;;10.63;9.48;;;23.50;99.90;;;;;;5071509;28;20033;-69
2021/06/19 20:50:39;;;;;;;12.15;9.82;;;23.50;99.90;;;;;;5071278;28;20032;-70
2021/06/19 20:53:05;;;;;;;11.38;8.88;;;23.50;99.90;;;;;;5070948;28;20046;-69
2021/06/19 20:55:31;;;;;;;11.32;9.13;;;23.40;99.90;;;;;;5071281;28;20020;-70
2021/06/19 20:57:57;;;;;;;13.05;10.20;;;23.40;99.90;;;;;;5070124;28;20382;-70
2021/06/19 21:00:30;;;;;;;13.32;10.88;;;23.50;99.90;;;;;;5071321;28;20039;-70
2021/06/19 21:02:56;;;;;;;16.58;11.82;;;23.50;99.90;;;;;;5070906;28;20036;-70
2021/06/19 21:05:22;;;;;;;12.88;10.75;;;23.50;99.90;;;;;;5071158;28;20055;-70
2021/06/19 21:07:48;;;;;;;13.13;10.70;;;23.40;99.90;;;;;;5070737;28;20028;-70
2021/06/19 21:10:15;;;;;;;12.48;11.00;;;23.50;99.90;;;;;;5070865;28;20412;-70
2021/06/19 21:12:45;;;;;;;12.77;10.23;;;23.50;99.90;;;;;;5070659;28;20025;-70
2021/06/19 21:15:11;;;;;;;12.90;10.88;;;23.50;99.90;;;;;;5071222;28;20025;-69
2021/06/19 21:17:37;;;;;;;13.18;10.48;;;23.50;99.90;;;;;;5071056;28;20078;-70
2021/06/19 21:20:08;;;;;;;13.55;11.45;;;23.50;99.90;;;;;;5072503;28;20029;-69
2021/06/19 21:22:33;;;;;;;12.68;10.23;;;23.40;99.90;;;;;;5070716;28;20024;-70
2021/06/19 21:24:59;;;;;;;12.80;10.18;;;23.40;99.90;;;;;;5071314;28;20036;-70
2021/06/19 21:27:25;;;;;;;12.45;10.63;;;23.40;99.90;;;;;;5070866;28;20071;-70
2021/06/19 21:29:50;;;;;;;13.43;10.52;;;23.40;99.90;;;;;;5072446;28;20049;-70
2021/06/19 21:32:18;;;;;;;13.20;10.45;;;23.40;99.90;;;;;;5071103;28;20376;-70
2021/06/19 21:34:45;;;;;;;11.27;9.85;;;23.40;99.90;;;;;;5070824;28;20097;-69
2021/06/19 21:37:11;;;;;;;11.50;10.13;;;23.40;99.90;;;;;;5072122;28;20013;-70
2021/06/19 21:39:36;;;;;;;10.45;9.38;;;23.40;99.90;;;;;;5070914;28;20483;-70
2021/06/19 21:42:03;;;;;;;12.68;9.48;;;23.40;99.90;;;;;;5078557;28;20149;-70
2021/06/19 21:44:29;;;;;;;9.90;8.90;;;23.30;99.90;;;;;;5090855;28;20016;-70
2021/06/19 21:46:54;;;;;;;10.50;9.23;;;23.30;99.90;;;;;;5091164;28;20460;-70
2021/06/19 21:49:20;;;;;;;9.98;8.80;;;23.30;99.90;;;;;;5074675;28;20078;-70
2021/06/19 21:51:46;;;;;;;9.85;8.85;;;23.30;99.90;;;;;;5070600;28;20021;-70
2021/06/19 21:54:11;;;;;;;9.23;8.23;;;23.30;99.90;;;;;;5070316;28;20538;-70
2021/06/19 21:56:37;;;;;;;11.23;9.52;;;23.30;99.90;;;;;;5072262;28;20116;-70
2021/06/19 21:59:03;;;;;;;9.32;8.32;;;23.30;99.90;;;;;;5086564;28;20129;-70
2021/06/19 22:01:28;;;;;;;10.02;8.57;;;23.20;99.90;;;;;;5074284;28;20089;-70
2021/06/19 22:03:54;;;;;;;10.30;8.90;;;23.20;99.90;;;;;;5074611;28;20029;-70
2021/06/19 22:06:20;;;;;;;9.05;8.00;;;23.20;99.90;;;;;;5074826;28;20492;-70
2021/06/19 22:08:45;;;;;;;10.75;8.30;;;23.20;99.90;;;;;;5074035;28;20365;-70
2021/06/19 22:11:11;;;;;;;9.38;8.38;;;23.20;99.90;;;;;;5074433;28;20362;-70
2021/06/19 22:13:37;;;;;;;9.57;8.02;;;23.20;99.90;;;;;;5072867;28;20048;-70
2021/06/19 22:16:03;;;;;;;9.57;8.57;;;23.20;99.90;;;;;;5075061;28;20451;-70
2021/06/19 22:18:29;;;;;;;7.95;7.15;;;23.20;99.90;;;;;;5074012;28;20025;-70
2021/06/19 22:20:54;;;;;;;9.48;8.48;;;23.10;99.90;;;;;;5074167;28;20024;-70
2021/06/19 22:23:23;;;;;;;9.48;8.43;;;23.10;99.90;;;;;;5072743;28;20035;-70
2021/06/19 22:25:48;;;;;;;9.05;8.15;;;23.10;99.90;;;;;;5073580;28;20143;-70
2021/06/19 22:28:14;;;;;;;9.23;8.07;;;23.10;99.90;;;;;;5076456;28;20074;-70
2021/06/19 22:30:40;;;;;;;9.00;7.53;;;23.10;99.90;;;;;;5093900;28;20039;-70
2021/06/19 22:33:07;;;;;;;9.32;8.35;;;23.10;99.90;;;;;;5094360;28;20020;-70
2021/06/19 22:35:34;;;;;;;8.98;8.05;;;23.10;99.90;;;;;;5094057;28;20024;-70
2021/06/19 22:38:01;;;;;;;8.75;7.60;;;23.10;99.90;;;;;;5094171;28;20472;-70
2021/06/19 22:40:29;;;;;;;9.02;8.10;;;23.10;99.90;;;;;;5093466;28;20399;-70
2021/06/19 22:42:56;;;;;;;9.63;8.52;;;23.10;99.90;;;;;;5079507;28;20442;-70
2021/06/19 22:45:22;;;;;;;8.60;7.80;;;23.00;99.90;;;;;;5078273;28;20029;-69
2021/06/19 22:47:48;;;;;;;9.45;8.45;;;23.00;99.90;;;;;;5091493;28;20442;-70
2021/06/19 22:50:15;;;;;;;9.57;8.20;;;23.00;99.90;;;;;;5093905;28;20040;-70
2021/06/19 22:52:41;;;;;;;9.15;7.95;;;23.00;99.90;;;;;;5076964;28;20021;-70
2021/06/19 22:55:10;;;;;;;9.07;8.18;;;23.00;99.90;;;;;;5079972;28;20032;-70
2021/06/19 22:57:36;;;;;;;9.55;8.52;;;23.00;99.90;;;;;;5074065;28;20073;-68
2021/06/19 23:00:02;;;;;;;9.52;8.43;;;23.00;99.90;;;;;;5079424;28;20035;-69
2021/06/19 23:02:28;;;;;;;8.88;8.05;;;23.00;99.90;;;;;;5074458;28;20074;-69
2021/06/19 23:04:53;;;;;;;10.07;9.00;;;23.00;99.90;;;;;;5080121;28;20514;-70
2021/06/19 23:07:19;;;;;;;11.13;8.80;;;23.00;99.90;;;;;;5081029;28;20020;-69
2021/06/19 23:09:44;;;;;;;9.50;8.13;;;23.00;99.90;;;;;;5072631;28;20068;-69
2021/06/19 23:12:11;;;;;;;11.40;8.57;;;23.10;99.90;;;;;;5071544;28;20063;-69
2021/06/19 23:14:39;;;;;;;11.05;8.05;;;23.10;99.90;;;;;;5072967;28;20044;-69
2021/06/19 23:17:06;;;;;;;12.05;8.82;;;23.10;99.90;;;;;;5088683;28;20380;-68
2021/06/19 23:19:32;;;;;;;9.60;8.05;;;23.10;99.90;;;;;;5082131;28;20541;-68
2021/06/19 23:21:59;;;;;;;9.77;7.95;;;23.10;99.90;;;;;;5086469;28;20376;-69
2021/06/19 23:24:25;;;;;;;9.70;8.27;;;23.10;99.90;;;;;;5087949;28;20107;-70
2021/06/19 23:26:51;;;;;;;12.85;8.52;;;23.20;99.90;;;;;;5086548;28;20091;-69
2021/06/19 23:29:17;;;;;;;9.50;7.70;;;23.20;99.90;;;;;;5082071;28;20024;-69
2021/06/19 23:31:43;;;;;;;13.60;8.25;;;23.10;99.90;;;;;;5083589;28;20495;-69
2021/06/19 23:34:09;;;;;;;9.57;7.30;;;23.10;99.90;;;;;;5072964;28;20028;-69
2021/06/19 23:36:34;;;;;;;11.07;8.10;;;23.10;99.90;;;;;;5089768;28;20077;-69
2021/06/19 23:39:00;;;;;;;9.80;7.35;;;23.10;99.90;;;;;;5073641;28;20025;-69
2021/06/19 23:41:26;;;;;;;11.25;7.78;;;23.10;99.90;;;;;;5072348;28;20024;-69
2021/06/19 23:43:52;;;;;;;9.40;7.90;;;23.10;99.90;;;;;;5072729;28;20090;-69
2021/06/19 23:46:17;;;;;;;12.60;7.38;;;23.20;99.90;;;;;;5073745;28;20482;-70
2021/06/19 23:48:43;;;;;;;19.10;7.72;;;23.20;99.90;;;;;;5071706;28;20430;-69
2021/06/19 23:51:09;;;;;;;13.25;8.27;;;23.20;99.90;;;;;;5075439;28;20036;-69
2021/06/19 23:53:35;;;;;;;15.07;7.13;;;23.20;99.90;;;;;;5084598;28;20099;-69
2021/06/19 23:56:00;;;;;;;14.30;7.55;;;23.20;99.90;;;;;;5092346;28;20032;-69
2021/06/19 23:58:26;;;;;;;11.63;7.55;;;23.20;99.90;;;;;;5079503;28;20025;-69
